Time;durP1;ratioP1;P1;durP2;ratioP2;P2;SDS_P1;SDS_P2;PMS_P1;PMS_P2;Temp;Humidity;BMP_temperature;BMP_pressure;BME280_temperature;BME280_humidity;BME280_pressure;Samples;Min_cycle;Max_cycle;Signal;HPM_P1;HPM_P2
2023/04/24 00:01:14;;;;;;;2.83;2.58;;;17.60;78.60;;;;;;4191666;28;20490;-62
2023/04/24 00:03:55;;;;;;;2.92;2.75;;;17.60;78.60;;;;;;4191954;28;20070;-62
2023/04/24 00:06:38;;;;;;;3.22;2.92;;;17.60;78.70;;;;;;4192046;28;20059;-63
2023/04/24 00:09:19;;;;;;;2.88;2.72;;;17.60;78.70;;;;;;4179020;28;20134;-65
2023/04/24 00:12:00;;;;;;;2.75;2.47;;;17.50;78.70;;;;;;4190191;28;20044;-65
2023/04/24 00:14:41;;;;;;;2.78;2.60;;;17.50;78.80;;;;;;4174850;28;20610;-62
2023/04/24 00:17:22;;;;;;;2.73;2.53;;;17.50;78.70;;;;;;4174923;28;20502;-63
2023/04/24 00:20:04;;;;;;;2.30;2.10;;;17.60;78.70;;;;;;4179977;28;20545;-63
2023/04/24 00:22:46;;;;;;;1.20;1.20;;;17.50;78.50;;;;;;4175071;28;20068;-63
2023/04/24 00:25:27;;;;;;;0.80;0.80;;;17.50;78.30;;;;;;4175295;28;20052;-62
2023/04/24 00:28:07;;;;;;;0.88;0.80;;;17.50;78.20;;;;;;4175164;28;20048;-63
2023/04/24 00:30:48;;;;;;;1.15;0.80;;;17.50;78.30;;;;;;4178048;28;20056;-63
2023/04/24 00:33:29;;;;;;;1.10;0.68;;;17.50;78.10;;;;;;4177292;28;20064;-62
2023/04/24 00:36:10;;;;;;;1.08;0.85;;;17.50;78.10;;;;;;4193559;28;20089;-62
2023/04/24 00:38:52;;;;;;;0.60;0.60;;;17.50;79.00;;;;;;4192837;28;20174;-62
2023/04/24 00:41:33;;;;;;;0.65;0.65;;;17.50;78.10;;;;;;4194607;28;20055;-63
2023/04/24 00:44:14;;;;;;;1.38;0.60;;;17.50;77.90;;;;;;4194556;28;20185;-63
2023/04/24 00:46:56;;;;;;;1.08;0.60;;;17.50;78.00;;;;;;4190182;28;20067;-63
2023/04/24 00:49:37;;;;;;;0.50;0.50;;;17.50;78.00;;;;;;4187279;28;20051;-63
2023/04/24 00:52:18;;;;;;;1.20;0.80;;;17.50;78.00;;;;;;4194617;28;20206;-63
2023/04/24 00:55:00;;;;;;;1.30;0.70;;;17.50;78.10;;;;;;4193373;28;20051;-62
2023/04/24 00:57:42;;;;;;;0.40;0.40;;;17.50;77.90;;;;;;4194324;28;20142;-62
2023/04/24 01:00:23;;;;;;;0.40;0.40;;;17.50;77.90;;;;;;4188853;28;20083;-62
2023/04/24 01:03:06;;;;;;;0.40;0.40;;;17.50;77.80;;;;;;4192497;28;20055;-63
2023/04/24 01:05:48;;;;;;;0.60;0.50;;;17.50;77.80;;;;;;4193251;28;20052;-62
2023/04/24 01:08:29;;;;;;;1.02;0.50;;;17.40;77.70;;;;;;4193088;28;20122;-62
2023/04/24 01:11:12;;;;;;;0.32;0.32;;;17.40;77.80;;;;;;4194206;28;20071;-62
2023/04/24 01:13:53;;;;;;;3.10;1.05;;;17.40;77.80;;;;;;4193503;28;20070;-62
2023/04/24 01:16:34;;;;;;;1.55;0.70;;;17.40;77.80;;;;;;4193977;28;20055;-62
2023/04/24 01:19:17;;;;;;;1.23;0.68;;;17.40;77.90;;;;;;4193667;28;20046;-63
2023/04/24 01:22:02;;;;;;;1.20;0.80;;;17.40;78.10;;;;;;4192234;28;20556;-63
2023/04/24 01:24:45;;;;;;;0.70;0.70;;;17.40;78.20;;;;;;4193351;28;20051;-63
2023/04/24 01:27:26;;;;;;;1.75;0.90;;;17.40;78.30;;;;;;4176017;28;20052;-63
2023/04/24 01:30:08;;;;;;;0.70;0.70;;;17.40;78.20;;;;;;4177295;28;20439;-64
2023/04/24 01:32:49;;;;;;;1.48;0.70;;;17.40;78.10;;;;;;4177573;28;20110;-63
2023/04/24 01:35:30;;;;;;;0.68;0.68;;;17.40;78.20;;;;;;4181968;28;20055;-63
2023/04/24 01:38:11;;;;;;;0.98;0.90;;;17.40;78.20;;;;;;4178421;28;20063;-63
2023/04/24 01:40:54;;;;;;;0.68;0.60;;;17.40;79.20;;;;;;4193421;28;20621;-64
2023/04/24 01:43:34;;;;;;;0.65;0.65;;;17.40;79.20;;;;;;4192042;28;20055;-62
2023/04/24 01:46:15;;;;;;;0.65;0.60;;;17.40;78.40;;;;;;4187723;28;20097;-63
2023/04/24 01:48:57;;;;;;;0.60;0.60;;;17.40;78.50;;;;;;4192085;28;20051;-63
2023/04/24 01:51:38;;;;;;;0.70;0.70;;;17.40;78.60;;;;;;4192868;28;20402;-62
2023/04/24 01:54:19;;;;;;;0.80;0.80;;;17.40;78.70;;;;;;4192955;28;20052;-62
2023/04/24 01:57:02;;;;;;;0.80;0.80;;;17.40;78.90;;;;;;4193114;28;20085;-62
2023/04/24 01:59:44;;;;;;;0.90;0.90;;;17.30;78.90;;;;;;4180652;28;20742;-62
2023/04/24 02:02:27;;;;;;;0.70;0.70;;;17.40;79.00;;;;;;4177172;28;20122;-62
2023/04/24 02:05:10;;;;;;;0.60;0.60;;;17.40;79.00;;;;;;4176923;28;20048;-62
2023/04/24 02:07:51;;;;;;;0.80;0.80;;;17.40;78.90;;;;;;4176727;28;20400;-62
2023/04/24 02:10:32;;;;;;;0.93;0.93;;;17.30;78.80;;;;;;4176960;28;20553;-62
2023/04/24 02:13:14;;;;;;;0.98;0.98;;;17.30;78.80;;;;;;4179853;28;20063;-62
2023/04/24 02:15:55;;;;;;;0.77;0.77;;;17.40;79.00;;;;;;4193064;28;20068;-63
2023/04/24 02:18:37;;;;;;;1.00;0.80;;;17.30;78.90;;;;;;4193220;28;20051;-62
2023/04/24 02:21:18;;;;;;;1.23;1.20;;;17.30;79.10;;;;;;4191295;28;20144;-62
2023/04/24 02:23:59;;;;;;;1.25;1.25;;;17.30;79.10;;;;;;4185870;28;20055;-62
2023/04/24 02:26:40;;;;;;;1.23;1.20;;;17.30;79.20;;;;;;4191865;28;20507;-62
2023/04/24 02:29:22;;;;;;;1.20;1.20;;;17.30;79.10;;;;;;4192692;28;20502;-62
2023/04/24 02:32:03;;;;;;;1.73;1.73;;;17.30;79.10;;;;;;4188453;28;20407;-63
2023/04/24 02:34:44;;;;;;;1.63;1.52;;;17.30;79.10;;;;;;4179534;28;20411;-63
2023/04/24 02:37:26;;;;;;;2.03;1.92;;;17.30;79.30;;;;;;4190981;28;20047;-63
2023/04/24 02:40:08;;;;;;;2.03;1.98;;;17.30;79.90;;;;;;4191601;28;20056;-62
2023/04/24 02:42:49;;;;;;;2.67;2.45;;;17.30;79.30;;;;;;4190644;28;20051;-62
2023/04/24 02:45:34;;;;;;;2.37;2.20;;;17.20;79.30;;;;;;4175966;28;20075;-62
2023/04/24 02:48:15;;;;;;;2.25;2.15;;;17.30;79.20;;;;;;4176037;28;20487;-62
2023/04/24 02:50:57;;;;;;;2.40;2.30;;;17.30;79.30;;;;;;4179207;28;20055;-65
2023/04/24 02:53:38;;;;;;;2.67;2.50;;;17.20;79.30;;;;;;4175110;28;20499;-65
2023/04/24 02:56:18;;;;;;;2.77;2.67;;;17.30;79.50;;;;;;4186576;28;20519;-65
2023/04/24 02:58:59;;;;;;;2.85;2.75;;;17.30;79.40;;;;;;4176092;28;20815;-65
2023/04/24 03:01:41;;;;;;;3.20;3.00;;;17.20;79.50;;;;;;4189271;28;20087;-65
2023/04/24 03:04:22;;;;;;;2.95;2.75;;;17.30;79.60;;;;;;4192369;28;20513;-65
2023/04/24 03:07:04;;;;;;;3.55;3.35;;;17.20;79.50;;;;;;4191246;28;20051;-65
2023/04/24 03:09:45;;;;;;;6.03;4.47;;;17.20;79.40;;;;;;4191139;28;20521;-65
2023/04/24 03:12:25;;;;;;;3.22;3.03;;;17.20;79.50;;;;;;4183661;28;20529;-65
2023/04/24 03:15:08;;;;;;;3.25;3.05;;;17.20;79.50;;;;;;4192522;28;20499;-65
2023/04/24 03:17:52;;;;;;;2.92;2.72;;;17.20;79.60;;;;;;4191106;28;20162;-65
2023/04/24 03:20:36;;;;;;;2.65;2.50;;;17.20;79.60;;;;;;4189227;28;20063;-65
2023/04/24 03:23:17;;;;;;;2.40;2.30;;;17.20;79.70;;;;;;4190618;28;20414;-65
2023/04/24 03:25:59;;;;;;;2.45;2.35;;;17.20;80.60;;;;;;4190869;28;20483;-65
2023/04/24 03:28:40;;;;;;;3.05;2.95;;;17.20;79.70;;;;;;4191199;28;20514;-65
2023/04/24 03:31:21;;;;;;;2.65;2.55;;;17.20;79.70;;;;;;4180221;28;20052;-66
2023/04/24 03:34:04;;;;;;;2.72;2.63;;;17.20;79.70;;;;;;4174698;28;20389;-62
2023/04/24 03:36:47;;;;;;;2.25;2.25;;;17.20;79.80;;;;;;4190955;28;20063;-62
2023/04/24 03:39:28;;;;;;;2.85;2.75;;;17.10;79.80;;;;;;4191090;28;20070;-62
2023/04/24 03:42:10;;;;;;;2.78;2.58;;;17.20;79.80;;;;;;4186487;28;20051;-62
2023/04/24 03:45:00;;;;;;;2.90;2.80;;;17.20;79.90;;;;;;4190452;28;20150;-65
2023/04/24 03:47:46;;;;;;;2.58;2.47;;;17.20;79.90;;;;;;4176151;28;20067;-65
2023/04/24 03:50:29;;;;;;;2.58;2.35;;;17.20;79.90;;;;;;4179742;28;20119;-66
2023/04/24 03:53:10;;;;;;;2.72;2.53;;;17.10;79.70;;;;;;4190987;28;20048;-65
2023/04/24 03:55:54;;;;;;;2.45;2.35;;;17.10;79.60;;;;;;4184866;28;20549;-65
2023/04/24 03:58:36;;;;;;;2.95;2.70;;;17.10;79.60;;;;;;4181106;28;20051;-65
2023/04/24 04:01:18;;;;;;;2.90;2.53;;;17.10;79.90;;;;;;4191051;28;20055;-65
2023/04/24 04:04:05;;;;;;;2.50;2.40;;;17.10;80.00;;;;;;4193741;28;20100;-65
2023/04/24 04:06:47;;;;;;;2.45;2.25;;;17.10;80.00;;;;;;4181666;28;20060;-65
2023/04/24 04:09:28;;;;;;;2.40;2.30;;;17.10;79.90;;;;;;4188294;28;20109;-65
2023/04/24 04:12:09;;;;;;;2.33;2.22;;;17.10;79.90;;;;;;4194176;28;20070;-65
2023/04/24 04:14:52;;;;;;;2.30;2.20;;;17.10;79.90;;;;;;4193363;28;20564;-65
2023/04/24 04:17:33;;;;;;;2.58;2.35;;;17.10;80.80;;;;;;4194034;28;20055;-65
2023/04/24 04:20:15;;;;;;;2.40;2.30;;;17.10;80.10;;;;;;4173203;28;20113;-65
2023/04/24 04:22:57;;;;;;;10.77;2.10;;;17.10;80.00;;;;;;4193904;28;20486;-65
2023/04/24 04:25:49;;;;;;;2.10;2.10;;;17.10;79.90;;;;;;4186870;28;20102;-65
2023/04/24 04:28:34;;;;;;;2.30;2.10;;;17.10;79.90;;;;;;4183024;28;20059;-64
2023/04/24 04:31:16;;;;;;;2.15;2.05;;;17.10;80.00;;;;;;4192624;28;20517;-65
2023/04/24 04:33:57;;;;;;;3.97;1.95;;;17.10;80.00;;;;;;4178004;28;20075;-65
2023/04/24 04:36:39;;;;;;;2.30;2.20;;;17.00;79.80;;;;;;4178346;28;20121;-65
2023/04/24 04:39:45;;;;;;;2.17;2.08;;;17.10;79.80;;;;;;4178238;28;20495;-67
2023/04/24 04:42:32;;;;;;;2.15;2.05;;;17.00;80.00;;;;;;4176611;28;20055;-63
2023/04/24 04:45:13;;;;;;;2.22;2.13;;;17.00;80.00;;;;;;4181758;28;20529;-63
2023/04/24 04:48:13;;;;;;;2.38;2.28;;;17.00;80.10;;;;;;4176007;28;20060;-63
2023/04/24 04:50:55;;;;;;;2.72;2.55;;;17.00;80.00;;;;;;4176241;28;20060;-63
2023/04/24 04:53:36;;;;;;;;;;;17.00;80.00;;;;;;4185977;28;20098;-62
2023/04/24 04:56:19;;;;;;;2.50;2.40;;;17.00;80.00;;;;;;4204143;28;19927;-63
2023/04/24 04:59:00;;;;;;;3.28;2.55;;;17.00;81.20;;;;;;4192984;28;20298;-62
2023/04/24 05:01:41;;;;;;;2.88;2.78;;;17.00;80.30;;;;;;4176523;28;20056;-63
2023/04/24 05:04:24;;;;;;;2.55;2.45;;;17.00;80.30;;;;;;4176712;28;20071;-62
2023/04/24 05:07:06;;;;;;;2.53;2.42;;;17.00;80.30;;;;;;4185844;28;20051;-63
2023/04/24 05:09:51;;;;;;;2.50;2.40;;;17.00;80.20;;;;;;4192895;28;20158;-63
2023/04/24 05:12:34;;;;;;;2.60;2.50;;;17.00;80.30;;;;;;4193346;28;20062;-63
2023/04/24 05:15:16;;;;;;;2.22;2.13;;;17.00;80.30;;;;;;4183636;28;20052;-63
2023/04/24 05:17:57;;;;;;;;;;;17.00;80.20;;;;;;4181256;28;20059;-63
2023/04/24 05:20:39;;;;;;;1.73;1.63;;;17.00;80.20;;;;;;4192985;28;19927;-62
2023/04/24 05:23:20;;;;;;;1.73;1.63;;;17.00;80.60;;;;;;4192942;28;20473;-63
2023/04/24 05:26:05;;;;;;;1.60;1.60;;;17.00;80.50;;;;;;4179672;28;20052;-62
2023/04/24 05:28:48;;;;;;;1.33;1.25;;;16.90;80.40;;;;;;4192589;28;20063;-66
2023/04/24 05:31:30;;;;;;;1.33;1.33;;;16.90;80.30;;;;;;4192223;28;20050;-65
2023/04/24 05:34:11;;;;;;;1.20;1.20;;;17.00;80.30;;;;;;4193790;28;20171;-66
2023/04/24 05:36:56;;;;;;;1.10;1.10;;;16.90;80.30;;;;;;4192120;28;20174;-63
2023/04/24 05:39:37;;;;;;;0.85;0.85;;;16.90;80.30;;;;;;4193111;28;20129;-62
2023/04/24 05:42:18;;;;;;;1.00;0.80;;;16.90;80.30;;;;;;4192621;28;20051;-63
2023/04/24 05:45:01;;;;;;;0.77;0.77;;;16.90;80.30;;;;;;4183568;28;20051;-62
2023/04/24 05:47:42;;;;;;;0.70;0.70;;;16.90;80.60;;;;;;4175856;28;20052;-63
2023/04/24 05:50:24;;;;;;;0.60;0.60;;;17.00;80.90;;;;;;4182570;28;20047;-62
2023/04/24 05:53:06;;;;;;;0.60;0.60;;;17.00;80.90;;;;;;4192459;28;20051;-63
2023/04/24 05:55:49;;;;;;;0.93;0.50;;;17.00;80.90;;;;;;4182475;28;20059;-63
2023/04/24 05:58:30;;;;;;;0.60;0.60;;;17.00;80.40;;;;;;4182448;28;20055;-71
2023/04/24 06:01:14;;;;;;;0.70;0.70;;;17.00;80.40;;;;;;4191467;28;20383;-70
2023/04/24 06:03:56;;;;;;;0.70;0.50;;;17.00;80.40;;;;;;4181278;28;20051;-70
2023/04/24 06:06:39;;;;;;;1.33;0.60;;;17.00;80.50;;;;;;4175840;28;20072;-70
2023/04/24 06:09:21;;;;;;;0.85;0.60;;;17.00;80.50;;;;;;4185150;28;20113;-70
2023/04/24 06:12:02;;;;;;;;;;;17.00;80.60;;;;;;4184021;28;20051;-70
2023/04/24 06:14:57;;;;;;;0.88;0.88;;;16.90;80.60;;;;;;4191153;28;19927;-70
2023/04/24 06:17:49;;;;;;;0.80;0.80;;;16.90;81.00;;;;;;4175580;28;20056;-71
2023/04/24 06:20:31;;;;;;;1.35;1.02;;;16.90;80.80;;;;;;4174537;28;20051;-71
2023/04/24 06:23:13;;;;;;;0.73;0.70;;;16.90;81.70;;;;;;4190538;28;20143;-71
2023/04/24 06:25:54;;;;;;;1.30;0.90;;;16.90;80.80;;;;;;4190910;28;20105;-71
2023/04/24 06:28:36;;;;;;;5.93;1.30;;;16.90;80.90;;;;;;4191606;28;20552;-70
2023/04/24 06:31:16;;;;;;;1.50;1.50;;;16.90;81.70;;;;;;4191103;28;20123;-72
2023/04/24 06:33:58;;;;;;;1.80;1.43;;;16.90;80.90;;;;;;4191791;28;20390;-71
2023/04/24 06:36:40;;;;;;;2.00;1.75;;;16.90;80.90;;;;;;4192062;28;20066;-72
2023/04/24 06:39:20;;;;;;;2.95;2.13;;;16.90;81.10;;;;;;4192280;28;20097;-71
2023/04/24 06:42:01;;;;;;;2.45;2.30;;;16.90;80.90;;;;;;4192608;28;20054;-70
2023/04/24 06:44:42;;;;;;;2.80;2.60;;;16.90;81.10;;;;;;4180007;28;20499;-69
2023/04/24 06:47:23;;;;;;;3.00;2.80;;;16.90;81.20;;;;;;4192918;28;20052;-69
2023/04/24 06:50:07;;;;;;;2.80;2.60;;;16.90;81.10;;;;;;4192142;28;20051;-69
2023/04/24 06:52:48;;;;;;;3.60;3.30;;;16.90;80.90;;;;;;4188613;28;20126;-68
2023/04/24 06:55:29;;;;;;;3.65;3.20;;;16.90;80.70;;;;;;4176138;28;20044;-69
2023/04/24 06:58:09;;;;;;;4.22;3.72;;;16.80;80.60;;;;;;4192692;28;20048;-69
2023/04/24 07:00:50;;;;;;;3.35;3.10;;;16.80;80.90;;;;;;4191890;28;20051;-69
2023/04/24 07:03:31;;;;;;;7.68;3.22;;;16.80;80.80;;;;;;4183194;28;20453;-69
2023/04/24 07:06:14;;;;;;;4.20;3.17;;;16.80;80.80;;;;;;4181972;28;20060;-69
2023/04/24 07:08:55;;;;;;;3.30;3.10;;;16.80;81.60;;;;;;4189724;28;20082;-69
2023/04/24 07:11:38;;;;;;;4.28;2.80;;;16.80;81.50;;;;;;4185159;28;20622;-68
2023/04/24 07:14:20;;;;;;;3.03;2.30;;;16.80;80.90;;;;;;4185139;28;20404;-69
2023/04/24 07:17:01;;;;;;;2.90;2.20;;;16.80;81.20;;;;;;4185886;28;20055;-65
2023/04/24 07:19:42;;;;;;;4.07;2.45;;;16.80;81.30;;;;;;4192241;28;20483;-65
2023/04/24 07:22:25;;;;;;;;;;;16.80;81.40;;;;;;4192528;28;20125;-64
2023/04/24 07:25:07;;;;;;;1.58;1.48;;;16.80;81.30;;;;;;4179731;28;20302;-65
2023/04/24 07:27:48;;;;;;;1.08;0.98;;;16.80;81.40;;;;;;4195495;28;20042;-64
2023/04/24 07:30:29;;;;;;;1.30;1.30;;;16.80;81.00;;;;;;4184491;28;20178;-64
2023/04/24 07:33:12;;;;;;;1.48;1.38;;;16.70;80.90;;;;;;4191550;28;20506;-63
2023/04/24 07:35:54;;;;;;;1.02;1.02;;;16.80;81.40;;;;;;4174969;28;20064;-63
2023/04/24 07:38:36;;;;;;;;;;;16.80;81.30;;;;;;4191938;28;20056;-62
2023/04/24 07:41:17;;;;;;;;;;;16.80;81.40;;;;;;4196235;28;19993;-63
2023/04/24 07:43:59;;;;;;;1.10;1.10;;;16.80;81.20;;;;;;4195287;28;19928;-62
2023/04/24 07:46:41;;;;;;;1.17;1.10;;;16.70;81.20;;;;;;4195291;28;20052;-62
2023/04/24 07:49:21;;;;;;;1.27;1.17;;;16.70;81.00;;;;;;4195173;28;20052;-63
2023/04/24 07:52:02;;;;;;;1.23;1.20;;;16.70;81.30;;;;;;4185003;28;20064;-63
2023/04/24 07:54:44;;;;;;;1.10;1.00;;;16.70;81.30;;;;;;4187515;28;20144;-62
2023/04/24 07:57:25;;;;;;;1.10;1.10;;;16.70;81.30;;;;;;4194170;28;20297;-63
2023/04/24 08:00:07;;;;;;;1.55;0.98;;;16.70;81.60;;;;;;4192118;28;20039;-63
2023/04/24 08:02:51;;;;;;;1.30;1.20;;;16.70;81.40;;;;;;4182418;28;20067;-63
2023/04/24 08:05:32;;;;;;;2.38;0.90;;;16.70;81.30;;;;;;4193929;28;20051;-63
2023/04/24 08:08:13;;;;;;;1.70;1.60;;;16.70;81.50;;;;;;4194999;28;20403;-63
2023/04/24 08:10:55;;;;;;;2.15;1.90;;;16.70;81.50;;;;;;4195330;28;20051;-67
2023/04/24 08:13:36;;;;;;;2.05;1.92;;;16.70;81.30;;;;;;4193958;28;20059;-68
2023/04/24 08:16:17;;;;;;;2.38;1.77;;;16.70;81.30;;;;;;4195143;28;20391;-68
2023/04/24 08:18:58;;;;;;;2.58;2.00;;;16.70;81.30;;;;;;4194693;28;20699;-67
2023/04/24 08:21:39;;;;;;;4.15;2.40;;;16.60;81.20;;;;;;4178466;28;20136;-67
2023/04/24 08:24:20;;;;;;;4.65;2.60;;;16.60;81.50;;;;;;4182715;28;20060;-63
2023/04/24 08:27:02;;;;;;;6.57;3.15;;;16.60;80.60;;;;;;4194259;28;20814;-62
2023/04/24 08:29:43;;;;;;;4.35;3.90;;;16.60;81.30;;;;;;4194394;28;20059;-62
2023/04/24 08:32:24;;;;;;;6.43;4.82;;;16.60;81.00;;;;;;4194408;28;20052;-62
2023/04/24 08:35:06;;;;;;;5.45;4.72;;;16.60;81.20;;;;;;4186570;28;20062;-62
2023/04/24 08:37:46;;;;;;;6.15;4.80;;;16.60;81.20;;;;;;4193817;28;20497;-63
2023/04/24 08:40:29;;;;;;;7.25;5.60;;;16.60;81.00;;;;;;4194495;28;20213;-62
2023/04/24 08:43:13;;;;;;;12.43;7.25;;;16.60;81.30;;;;;;4194539;28;20118;-62
2023/04/24 08:45:55;;;;;;;9.32;7.40;;;16.60;81.40;;;;;;4194484;28;20052;-67
2023/04/24 08:48:37;;;;;;;12.48;8.80;;;16.60;81.20;;;;;;4182876;28;20211;-66
2023/04/24 08:51:18;;;;;;;13.13;8.77;;;16.60;81.20;;;;;;4192726;28;20056;-67
2023/04/24 08:53:59;;;;;;;15.82;10.68;;;16.60;80.90;;;;;;4177857;28;20056;-67
2023/04/24 08:56:41;;;;;;;12.52;7.88;;;16.60;81.20;;;;;;4185054;28;20059;-67
2023/04/24 08:59:24;;;;;;;9.85;7.85;;;16.50;81.10;;;;;;4194037;28;20051;-69
2023/04/24 09:02:05;;;;;;;14.40;8.23;;;16.50;80.90;;;;;;4193789;28;20513;-70
2023/04/24 09:04:47;;;;;;;14.65;8.10;;;16.50;81.00;;;;;;4177850;28;21244;-68
2023/04/24 09:07:31;;;;;;;10.48;7.60;;;16.50;79.90;;;;;;4188953;28;20047;-69
2023/04/24 09:10:12;;;;;;;10.65;6.70;;;16.50;79.70;;;;;;4193557;28;20059;-68
2023/04/24 09:12:54;;;;;;;9.10;6.38;;;16.50;80.30;;;;;;4193354;28;20070;-70
2023/04/24 09:15:37;;;;;;;11.25;6.78;;;16.50;80.00;;;;;;4192072;28;20071;-71
2023/04/24 09:18:18;;;;;;;13.55;6.97;;;16.50;79.70;;;;;;4184893;28;20482;-70
2023/04/24 09:21:00;;;;;;;8.80;6.57;;;16.50;80.00;;;;;;4177074;28;20179;-69
2023/04/24 09:23:42;;;;;;;11.77;7.35;;;16.50;80.00;;;;;;4176947;28;20565;-70
2023/04/24 09:26:23;;;;;;;12.43;7.47;;;16.50;79.80;;;;;;4177089;28;20048;-69
2023/04/24 09:29:05;;;;;;;10.75;7.40;;;16.40;80.10;;;;;;4180174;28;20086;-70
2023/04/24 09:31:47;;;;;;;10.55;6.85;;;16.40;80.00;;;;;;4176891;28;20071;-70
2023/04/24 09:34:28;;;;;;;12.35;7.97;;;16.40;80.20;;;;;;4175663;28;20048;-71
2023/04/24 09:37:09;;;;;;;9.93;7.18;;;16.40;79.50;;;;;;4176859;28;20052;-70
2023/04/24 09:40:08;;;;;;;10.75;8.18;;;16.40;79.50;;;;;;4186543;28;20055;-70
2023/04/24 09:42:54;;;;;;;11.13;7.20;;;16.40;79.20;;;;;;4175849;28;20684;-70
2023/04/24 09:45:37;;;;;;;12.75;7.57;;;16.40;79.40;;;;;;4190572;28;20503;-70
2023/04/24 09:48:19;;;;;;;8.95;6.53;;;16.40;79.50;;;;;;4177177;28;20052;-71
2023/04/24 09:51:03;;;;;;;10.73;6.97;;;16.40;80.10;;;;;;4190089;28;20130;-68
2023/04/24 09:53:47;;;;;;;8.55;5.53;;;16.40;79.20;;;;;;4192606;28;20094;-68
2023/04/24 09:56:35;;;;;;;8.63;5.68;;;16.40;78.70;;;;;;4192733;28;20047;-69
2023/04/24 09:59:17;;;;;;;9.75;5.72;;;16.40;79.10;;;;;;4193028;28;20094;-69
2023/04/24 10:01:58;;;;;;;7.03;5.20;;;16.40;79.00;;;;;;4192645;28;20052;-69
2023/04/24 10:04:41;;;;;;;6.78;5.05;;;16.40;78.80;;;;;;4189133;28;20047;-69
2023/04/24 10:07:22;;;;;;;5.60;5.03;;;16.40;79.00;;;;;;4192614;28;20055;-69
2023/04/24 10:10:03;;;;;;;6.55;4.93;;;16.40;79.40;;;;;;4192923;28;20060;-69
2023/04/24 10:12:45;;;;;;;6.30;4.25;;;16.40;79.80;;;;;;4192341;28;20565;-69
2023/04/24 10:15:27;;;;;;;11.02;4.55;;;16.40;80.00;;;;;;4192941;28;20113;-69
2023/04/24 10:18:09;;;;;;;9.68;5.10;;;16.40;79.60;;;;;;4193039;28;20047;-68
2023/04/24 10:20:54;;;;;;;10.52;4.35;;;16.40;79.60;;;;;;4191895;28;20133;-69
2023/04/24 10:23:36;;;;;;;6.80;4.05;;;16.40;79.30;;;;;;4193425;28;20118;-69
2023/04/24 10:26:19;;;;;;;13.90;4.80;;;16.30;79.00;;;;;;4176122;28;20055;-69
2023/04/24 10:29:00;;;;;;;5.43;4.30;;;16.40;79.30;;;;;;4176053;28;20110;-69
2023/04/24 10:31:41;;;;;;;7.13;4.53;;;16.30;79.70;;;;;;4176516;28;20059;-69
2023/04/24 10:34:23;;;;;;;;;;;16.30;79.20;;;;;;4180292;28;20499;-69
2023/04/24 10:37:05;;;;;;;8.48;4.80;;;16.30;79.20;;;;;;4190249;28;20018;-69
2023/04/24 10:39:50;;;;;;;8.20;3.97;;;16.30;79.60;;;;;;4192928;28;20130;-69
2023/04/24 10:42:32;;;;;;;10.55;4.60;;;16.30;78.80;;;;;;4192523;28;20186;-70
2023/04/24 10:45:18;;;;;;;6.50;4.07;;;16.30;79.30;;;;;;4180114;28;20056;-69
2023/04/24 10:48:01;;;;;;;5.55;3.78;;;16.30;79.80;;;;;;4192567;28;20055;-69
2023/04/24 10:50:46;;;;;;;5.68;2.67;;;16.30;79.80;;;;;;4192362;28;20119;-69
2023/04/24 10:53:31;;;;;;;7.30;3.70;;;16.30;78.60;;;;;;4192044;28;20062;-68
2023/04/24 10:56:13;;;;;;;7.22;3.33;;;16.30;79.10;;;;;;4185934;28;20051;-63
2023/04/24 10:58:54;;;;;;;11.27;3.78;;;16.30;79.00;;;;;;4175917;28;20133;-69
2023/04/24 11:01:39;;;;;;;6.35;2.72;;;16.30;78.80;;;;;;4175818;28;20059;-63
2023/04/24 11:04:31;;;;;;;6.53;3.05;;;16.30;78.70;;;;;;4190773;28;20127;-70
2023/04/24 11:07:13;;;;;;;4.72;3.40;;;16.30;78.60;;;;;;4183772;28;20059;-68
2023/04/24 11:10:00;;;;;;;7.25;2.53;;;16.30;78.30;;;;;;4192260;28;20525;-69
2023/04/24 11:12:41;;;;;;;5.43;2.50;;;16.30;78.10;;;;;;4191742;28;20094;-68
2023/04/24 11:15:22;;;;;;;5.30;2.60;;;16.30;78.00;;;;;;4178568;28;20052;-62
2023/04/24 11:18:04;;;;;;;10.18;4.78;;;16.30;77.90;;;;;;4175818;28;20060;-64
2023/04/24 11:20:45;;;;;;;6.15;2.97;;;16.40;78.00;;;;;;4175288;28;20059;-65
2023/04/24 11:23:26;;;;;;;5.88;2.13;;;16.40;78.40;;;;;;4180175;28;20067;-64
2023/04/24 11:26:20;;;;;;;7.00;1.98;;;16.40;77.80;;;;;;4191429;28;20105;-64
2023/04/24 11:29:08;;;;;;;6.25;2.35;;;16.40;77.10;;;;;;4191302;28;20059;-62
2023/04/24 11:31:51;;;;;;;5.47;2.38;;;16.40;77.60;;;;;;4179920;28;20071;-63
2023/04/24 11:34:33;;;;;;;4.80;2.17;;;16.40;77.10;;;;;;4192158;28;20060;-62
2023/04/24 11:37:14;;;;;;;6.53;3.00;;;16.30;76.50;;;;;;4191793;28;20051;-62
2023/04/24 11:39:56;;;;;;;2.97;2.08;;;16.30;75.70;;;;;;4192434;28;20594;-63
2023/04/24 11:42:39;;;;;;;8.70;3.03;;;16.30;75.20;;;;;;4189746;28;20050;-63
2023/04/24 11:45:24;;;;;;;4.82;2.15;;;16.30;76.30;;;;;;4184216;28;20044;-63
2023/04/24 11:48:05;;;;;;;7.60;2.20;;;16.30;76.50;;;;;;4191407;28;20055;-63
2023/04/24 11:50:47;;;;;;;8.02;2.40;;;16.30;76.50;;;;;;4175589;28;20060;-63
2023/04/24 11:53:28;;;;;;;;;;;16.30;76.50;;;;;;4176145;28;20403;-60
2023/04/24 11:56:10;;;;;;;3.72;1.80;;;16.30;77.40;;;;;;4175673;28;19935;-63
2023/04/24 11:58:55;;;;;;;5.55;2.25;;;16.30;78.10;;;;;;4175677;28;20060;-64
2023/04/24 12:01:45;;;;;;;6.22;2.30;;;16.30;77.00;;;;;;4180727;28;20097;-63
2023/04/24 12:04:25;;;;;;;6.88;2.38;;;16.30;75.70;;;;;;4189167;28;20064;-62
2023/04/24 12:07:08;;;;;;;5.80;2.22;;;16.30;76.90;;;;;;4192055;28;20217;-63
2023/04/24 12:09:51;;;;;;;8.18;2.47;;;16.30;76.90;;;;;;4192160;28;20067;-62
2023/04/24 12:12:32;;;;;;;6.75;2.05;;;16.30;76.90;;;;;;4183183;28;20056;-64
2023/04/24 12:15:18;;;;;;;5.68;1.80;;;16.30;77.00;;;;;;4179326;28;20055;-63
2023/04/24 12:17:59;;;;;;;5.15;2.05;;;16.30;76.80;;;;;;4192021;28;20121;-63
2023/04/24 12:20:41;;;;;;;;;;;16.30;76.80;;;;;;4191247;28;20557;-63
2023/04/24 12:23:35;;;;;;;7.47;2.33;;;16.30;76.50;;;;;;4191928;28;19927;-63
2023/04/24 12:26:19;;;;;;;7.63;1.92;;;16.20;76.90;;;;;;4190029;28;20044;-63
2023/04/24 12:29:04;;;;;;;6.75;1.67;;;16.20;77.40;;;;;;4193389;28;20564;-63
2023/04/24 12:31:46;;;;;;;7.57;2.22;;;16.20;76.40;;;;;;4193747;28;20391;-62
2023/04/24 12:34:27;;;;;;;4.63;1.63;;;16.20;76.60;;;;;;4194316;28;20047;-63
2023/04/24 12:37:11;;;;;;;7.47;2.03;;;16.20;76.80;;;;;;4190251;28;20235;-63
2023/04/24 12:40:06;;;;;;;5.47;1.75;;;16.20;76.10;;;;;;4184814;28;20063;-63
2023/04/24 12:42:50;;;;;;;4.90;1.60;;;16.20;76.10;;;;;;4194324;28;20063;-63
2023/04/24 12:45:31;;;;;;;4.03;1.45;;;16.20;76.60;;;;;;4193700;28;20044;-63
2023/04/24 12:48:14;;;;;;;5.78;2.67;;;16.20;77.00;;;;;;4194734;28;20043;-63
2023/04/24 12:50:56;;;;;;;6.28;2.20;;;16.20;77.10;;;;;;4193882;28;20063;-63
2023/04/24 12:53:36;;;;;;;;;;;16.20;77.00;;;;;;4186831;28;20063;-63
2023/04/24 12:56:18;;;;;;;5.18;1.88;;;16.20;78.00;;;;;;4182474;28;20271;-61
2023/04/24 12:58:59;;;;;;;3.13;2.05;;;16.20;78.70;;;;;;4186887;28;20412;-61
2023/04/24 13:01:40;;;;;;;4.30;1.40;;;16.20;77.60;;;;;;4179813;28;20118;-60
2023/04/24 13:04:22;;;;;;;3.60;1.73;;;16.20;77.90;;;;;;4186964;28;20740;-61
2023/04/24 13:07:04;;;;;;;3.78;1.55;;;16.20;77.20;;;;;;4194385;28;20516;-60
2023/04/24 13:09:45;;;;;;;2.25;1.10;;;16.20;77.30;;;;;;4191890;28;20060;-60
2023/04/24 13:12:26;;;;;;;2.50;1.40;;;16.20;76.10;;;;;;4194189;28;20522;-63
2023/04/24 13:15:08;;;;;;;2.05;1.25;;;16.20;76.10;;;;;;4194409;28;20198;-63
2023/04/24 13:17:48;;;;;;;;;;;16.20;76.10;;;;;;4188444;28;20071;-63
2023/04/24 13:20:31;;;;;;;3.45;1.25;;;16.20;77.30;;;;;;4189325;28;19959;-63
2023/04/24 13:23:11;;;;;;;2.10;1.15;;;16.20;76.50;;;;;;4192719;28;20093;-63
2023/04/24 13:25:55;;;;;;;5.30;1.30;;;16.20;76.00;;;;;;4192622;28;20086;-64
2023/04/24 13:28:38;;;;;;;4.68;1.40;;;16.20;76.10;;;;;;4177735;28;20395;-65
2023/04/24 13:31:19;;;;;;;2.38;1.33;;;16.20;75.30;;;;;;4189341;28;20047;-60
2023/04/24 13:33:59;;;;;;;1.88;1.13;;;16.20;76.00;;;;;;4178373;28;20051;-60
2023/04/24 13:36:42;;;;;;;2.15;1.30;;;16.20;76.00;;;;;;4177010;28;20075;-60
2023/04/24 13:39:24;;;;;;;1.25;0.95;;;16.20;76.30;;;;;;4176927;28;20048;-60
2023/04/24 13:42:05;;;;;;;4.20;1.30;;;16.20;76.20;;;;;;4181453;28;20055;-63
2023/04/24 13:44:46;;;;;;;9.38;1.60;;;16.20;76.70;;;;;;4193241;28;20059;-63
2023/04/24 13:47:27;;;;;;;3.60;1.58;;;16.20;76.10;;;;;;4191068;28;20059;-63
2023/04/24 13:50:09;;;;;;;4.90;1.20;;;16.20;76.30;;;;;;4176387;28;20191;-60
2023/04/24 13:52:51;;;;;;;1.98;1.10;;;16.20;76.50;;;;;;4176553;28;20063;-59
2023/04/24 13:55:32;;;;;;;4.93;0.95;;;16.20;76.50;;;;;;4191424;28;20060;-59
2023/04/24 13:58:13;;;;;;;1.58;0.90;;;16.20;76.40;;;;;;4192050;28;20101;-59
2023/04/24 14:00:54;;;;;;;;;;;16.20;76.50;;;;;;4178108;28;20055;-60
2023/04/24 14:03:35;;;;;;;4.70;0.98;;;16.20;77.10;;;;;;4177979;28;19946;-59
2023/04/24 14:06:16;;;;;;;3.22;0.80;;;16.10;77.80;;;;;;4176459;28;20163;-62